Tallant, Oklahoma
Current Conditions -  °F | °C
As of 6:53 PM on Thursday 18 Dec 2014 (Local Time) from KBVO Reporting Station
Overcast Overcast  
Wind Chill: 34°   Ceiling: 1200
Heat Index: 38°   Visibility: 10mi
Dew Point: 35°   Wind: 5mph
Humidity: 89%   Direction: 10°N
Pressure: 30.23"   Gusts: NA
Location:  36.5242°N, 96.1387°W
Report Text: KBVO 190053Z AUTO 01004KT 10SM BKN012 OVC016 03/02 A3023 RMK AO2 SLP238 T00330017
Loading
Personal Weather Stations






























Interactive Weather Map New forecast layout! Learn more

10-Day Weather Forecast

Advertisements
Track Severe Weather on mobile